Katherine — WDD5676 — position and weather

sailwx.info

Track history (hours):
 
Tides and Currents Weather Stations Pressure Air Temp Water Temp Dewpoint Dewpoint Depression Visibility Wind Speed Wind Dir Waves Ship Positions

Katherine

Owner: Weeks Marine, Inc., Cranford, NJ. More information available from US FCC via Universal Licensing System and Coast Guard Vessel Documentation Center.

Last reported at 2018-Jul-11 17:14 UTC. Time now 2018-Jul-19 13:07 UTC.
Position N 46°50' W 071°08'.

Length 31 m; draft 4.8 m.

Type: Towing. MMSI: 367161940.

Date/timePositionNaut miles runAvg speedWind from/ knotsBaromVisibWave heightAir tempDewpointWater temp
2018-Jul-11 17:14N 46°50' W 071°08'3 9.5
2018-Jul-11 16:55N 46°49' W 071°12'89 8.7
2018-Jul-11 06:39N 46°04' W 073°04'1 9.1
2018-Jul-11 06:30N 46°04' W 073°05'6 8.1
2018-Jul-11 05:44N 45°59' W 073°11'2 9.6
2018-Jul-11 05:30N 45°57' W 073°13'5 9.1
2018-Jul-11 05:00N 45°53' W 073°15'5 9.3
2018-Jul-11 04:30N 45°49' W 073°19'21 2.7
2018-Jul-10 20:46N 45°30' W 073°31'0 0.3
2018-Jul-10 20:02N 45°30' W 073°31'0 0.1
2018-Jul-10 19:57N 45°30' W 073°31'2 5.3
2018-Jul-10 19:29N 45°27' W 073°30'3 6.6
2018-Jul-10 19:01N 45°24' W 073°32'1 2.6
2018-Jul-10 18:31N 45°24' W 073°34'3 5.0
2018-Jul-10 17:59N 45°24' W 073°38'3 6.3
2018-Jul-10 17:29N 45°25' W 073°42'4 8.9
2018-Jul-10 17:00N 45°23' W 073°48'5 9.4
2018-Jul-10 16:30N 45°21' W 073°53'2 4.4
2018-Jul-10 16:00N 45°19' W 073°55'1 1.2
2018-Jul-10 15:20N 45°18' W 073°56'  
Track history (hours):
 
Tides and Currents Weather Stations Pressure Air Temp Water Temp Dewpoint Dewpoint Depression Visibility Wind Speed Wind Dir Waves Ship Positions

Katherine

Owner: Weeks Marine, Inc., Cranford, NJ. More information available from US FCC via Universal Licensing System and Coast Guard Vessel Documentation Center.

Last reported at 2018-Jul-11 17:14 UTC. Time now 2018-Jul-19 13:07 UTC.
Position N 46°50' W 071°08'.

Length 31 m; draft 4.8 m.

Type: Towing. MMSI: 367161940.

Date/timePositionNaut miles runAvg speedWind from/ knotsBaromVisibWave heightAir tempDewpointWater temp
2018-Jul-11 17:14N 46°50' W 071°08'3 9.5
2018-Jul-11 16:55N 46°49' W 071°12'89 8.7
2018-Jul-11 06:39N 46°04' W 073°04'1 9.1
2018-Jul-11 06:30N 46°04' W 073°05'6 8.1
2018-Jul-11 05:44N 45°59' W 073°11'2 9.6
2018-Jul-11 05:30N 45°57' W 073°13'5 9.1
2018-Jul-11 05:00N 45°53' W 073°15'5 9.3
2018-Jul-11 04:30N 45°49' W 073°19'21 2.7
2018-Jul-10 20:46N 45°30' W 073°31'0 0.3
2018-Jul-10 20:02N 45°30' W 073°31'0 0.1
2018-Jul-10 19:57N 45°30' W 073°31'2 5.3
2018-Jul-10 19:29N 45°27' W 073°30'3 6.6
2018-Jul-10 19:01N 45°24' W 073°32'1 2.6
2018-Jul-10 18:31N 45°24' W 073°34'3 5.0
2018-Jul-10 17:59N 45°24' W 073°38'3 6.3
2018-Jul-10 17:29N 45°25' W 073°42'4 8.9
2018-Jul-10 17:00N 45°23' W 073°48'5 9.4
2018-Jul-10 16:30N 45°21' W 073°53'2 4.4
2018-Jul-10 16:00N 45°19' W 073°55'1 1.2
2018-Jul-10 15:20N 45°18' W 073°56'  

Dump ship's entire track history